createdAt,value
2019-01-10T00:01:03.562Z,69.76
2019-01-10T00:05:12.090Z,69.77
2019-01-10T00:09:20.864Z,70.07
2019-01-10T00:13:27.863Z,70.25
2019-01-10T00:17:34.825Z,70.21
2019-01-10T00:21:41.933Z,70.30
2019-01-10T00:25:49.102Z,70.34
2019-01-10T00:29:55.971Z,70.39
2019-01-10T00:34:02.958Z,70.36
2019-01-10T00:38:09.940Z,70.68
2019-01-10T00:42:16.915Z,70.41
2019-01-10T00:46:23.828Z,70.78
2019-01-10T00:50:30.819Z,70.99
2019-01-10T00:54:37.904Z,70.95
2019-01-10T00:58:44.923Z,71.08
2019-01-10T01:02:55.405Z,71.20
2019-01-10T01:07:02.602Z,71.06
2019-01-10T01:11:10.341Z,71.53
2019-01-10T01:15:18.765Z,71.28
2019-01-10T01:19:25.921Z,71.51
2019-01-10T01:23:32.803Z,71.36
2019-01-10T01:27:39.880Z,71.56
2019-01-10T01:31:47.824Z,71.50
2019-01-10T01:35:54.771Z,71.66
2019-01-10T01:40:01.756Z,72.00
2019-01-10T01:44:08.755Z,72.04
2019-01-10T01:48:16.776Z,72.08
2019-01-10T01:52:23.655Z,72.08
2019-01-10T01:56:30.623Z,72.14
2019-01-10T02:00:40.318Z,72.27
2019-01-10T02:04:47.014Z,72.27
2019-01-10T02:08:57.859Z,72.36
2019-01-10T02:13:05.317Z,72.38
2019-01-10T02:17:13.474Z,72.17
2019-01-10T02:21:20.695Z,72.40
2019-01-10T02:25:28.454Z,72.46
2019-01-10T02:29:35.499Z,72.57
2019-01-10T02:33:42.512Z,72.34
2019-01-10T02:37:49.678Z,72.21
2019-01-10T02:41:56.700Z,71.91
2019-01-10T02:46:06.036Z,72.17
2019-01-10T02:50:21.227Z,72.22
2019-01-10T02:54:29.475Z,72.13
2019-01-10T02:58:38.790Z,72.10
2019-01-10T03:02:46.155Z,72.17
2019-01-10T03:06:53.239Z,72.24
2019-01-10T03:11:01.399Z,72.26
2019-01-10T03:15:08.928Z,72.25
2019-01-10T03:19:15.998Z,72.13
2019-01-10T03:23:25.531Z,72.36
2019-01-10T03:27:32.508Z,72.28
2019-01-10T03:31:39.436Z,72.28
2019-01-10T03:35:46.748Z,72.16
2019-01-10T03:39:53.581Z,72.06
2019-01-10T03:44:02.165Z,72.42
2019-01-10T03:48:09.085Z,72.35
2019-01-10T03:52:16.045Z,72.64
2019-01-10T03:56:25.359Z,72.60
2019-01-10T04:00:32.378Z,72.75
2019-01-10T04:04:39.743Z,72.83
2019-01-10T04:08:49.040Z,72.67
2019-01-10T04:12:58.067Z,72.79
2019-01-10T04:17:05.080Z,72.86
2019-01-10T04:21:17.475Z,72.89
2019-01-10T04:25:24.474Z,73.17
2019-01-10T04:29:31.202Z,73.08
2019-01-10T04:33:38.187Z,73.09
2019-01-10T04:37:45.132Z,73.24
2019-01-10T04:41:54.376Z,73.22
2019-01-10T04:46:01.217Z,73.24
2019-01-10T04:50:09.470Z,73.28
2019-01-10T04:54:16.468Z,73.49
2019-01-10T04:58:23.367Z,73.31
2019-01-10T05:02:30.754Z,73.53
2019-01-10T05:06:37.827Z,73.42
2019-01-10T05:10:44.860Z,73.58
2019-01-10T05:14:52.384Z,73.59
2019-01-10T05:18:59.392Z,73.66
2019-01-10T05:23:08.294Z,73.72
2019-01-10T05:27:15.275Z,73.83
2019-01-10T05:31:22.276Z,74.22
2019-01-10T05:35:29.173Z,74.20
2019-01-10T05:39:36.884Z,74.07
2019-01-10T05:43:43.835Z,74.20
2019-01-10T05:47:51.810Z,74.01
2019-01-10T05:51:58.971Z,74.27
2019-01-10T05:56:15.024Z,74.43
2019-01-10T06:00:27.631Z,73.89
2019-01-10T06:04:36.319Z,73.95
2019-01-10T06:08:43.460Z,73.91
2019-01-10T06:12:50.591Z,74.15
2019-01-10T06:16:57.533Z,73.81
2019-01-10T06:21:04.597Z,74.00
2019-01-10T06:25:11.604Z,74.04
2019-01-10T06:29:18.785Z,74.04
2019-01-10T06:33:26.607Z,74.13
2019-01-10T06:37:33.706Z,73.89
2019-01-10T06:41:40.800Z,73.81
2019-01-10T06:45:48.059Z,73.81
2019-01-10T06:49:55.150Z,73.81
2019-01-10T06:54:02.311Z,73.71
2019-01-10T06:58:11.424Z,73.67
2019-01-10T07:02:18.538Z,74.13
2019-01-10T07:06:25.670Z,73.83
2019-01-10T07:10:33.019Z,73.80
2019-01-10T07:14:41.200Z,73.50
2019-01-10T07:18:48.333Z,73.40
2019-01-10T07:22:56.159Z,73.59
2019-01-10T07:27:03.730Z,73.58
2019-01-10T07:31:43.344Z,73.56
2019-01-10T07:35:56.288Z,73.65
2019-01-10T07:40:03.603Z,73.16
2019-01-10T07:44:10.626Z,72.84
2019-01-10T07:48:17.619Z,72.55
2019-01-10T07:52:29.731Z,72.21
2019-01-10T07:56:36.843Z,71.87
2019-01-10T08:00:43.857Z,71.78
2019-01-10T08:04:52.408Z,71.32
2019-01-10T08:09:00.985Z,70.58
2019-01-10T08:13:11.064Z,69.98
2019-01-10T08:17:21.634Z,69.58
2019-01-10T08:21:29.665Z,69.10
2019-01-10T08:25:36.563Z,69.19
2019-01-10T08:29:43.464Z,69.97
2019-01-10T08:33:50.443Z,69.73
2019-01-10T08:37:57.412Z,69.65
2019-01-10T08:42:04.338Z,69.57
2019-01-10T08:46:11.371Z,69.39
2019-01-10T08:50:25.278Z,69.14
2019-01-10T08:54:32.210Z,69.14
2019-01-10T08:58:39.066Z,69.25
2019-01-10T09:02:46.248Z,69.47
2019-01-10T09:06:54.134Z,69.41
2019-01-10T09:11:01.436Z,69.87
2019-01-10T09:15:11.703Z,70.14
2019-01-10T09:19:21.619Z,70.05
2019-01-10T09:23:39.345Z,69.95
2019-01-10T09:27:46.871Z,69.14
2019-01-10T09:31:54.007Z,69.23
2019-01-10T09:36:01.260Z,69.14
2019-01-10T09:40:12.613Z,69.14
2019-01-10T09:44:23.098Z,68.45
2019-01-10T09:48:30.108Z,68.11
2019-01-10T09:52:39.404Z,67.52
2019-01-10T09:56:46.371Z,66.80
2019-01-10T10:00:53.672Z,66.64
2019-01-10T10:05:00.907Z,66.36
2019-01-10T10:09:09.836Z,65.85
2019-01-10T10:13:19.681Z,64.41
2019-01-10T10:17:34.034Z,64.12
2019-01-10T10:21:44.081Z,63.76
2019-01-10T10:25:53.369Z,63.68
2019-01-10T10:30:00.902Z,63.37
2019-01-10T10:34:10.130Z,62.84
2019-01-10T10:38:19.780Z,61.91
2019-01-10T10:42:26.686Z,61.67
2019-01-10T10:46:33.782Z,61.35
2019-01-10T10:50:45.051Z,63.17
2019-01-10T10:54:52.694Z,63.93
2019-01-10T10:59:01.006Z,61.88
2019-01-10T11:03:10.381Z,60.29
2019-01-10T11:07:17.885Z,59.44
2019-01-10T11:11:28.070Z,58.53
2019-01-10T11:15:35.704Z,58.73
2019-01-10T11:19:44.744Z,59.20
2019-01-10T11:23:55.220Z,60.56
2019-01-10T11:28:11.327Z,61.72
2019-01-10T11:32:18.585Z,62.19
2019-01-10T11:36:25.700Z,62.49
2019-01-10T11:40:39.069Z,62.75
2019-01-10T11:44:46.481Z,62.48
2019-01-10T11:48:53.848Z,61.89
2019-01-10T11:53:07.322Z,61.21
2019-01-10T11:57:14.580Z,60.62
2019-01-10T12:01:28.578Z,60.75
2019-01-10T12:05:47.596Z,60.02
2019-01-10T12:09:52.040Z,60.36
2019-01-10T12:14:05.598Z,60.04
2019-01-10T12:18:12.615Z,59.88
2019-01-10T12:22:19.824Z,60.09
2019-01-10T12:26:27.178Z,60.74
2019-01-10T12:30:37.588Z,61.17
2019-01-10T12:34:44.654Z,60.54
2019-01-10T12:38:51.808Z,61.25
2019-01-10T12:42:58.894Z,61.00
2019-01-10T12:47:06.058Z,61.07
2019-01-10T12:51:12.948Z,60.74
2019-01-10T12:55:20.216Z,60.55
2019-01-10T12:59:28.425Z,61.02
2019-01-10T13:03:37.268Z,61.37
2019-01-10T13:07:45.375Z,61.25
2019-01-10T13:11:55.607Z,61.49
2019-01-10T13:16:02.569Z,61.53
2019-01-10T13:20:10.533Z,61.64
2019-01-10T13:24:17.497Z,62.22
2019-01-10T13:28:24.738Z,62.26
2019-01-10T13:32:31.720Z,62.60
2019-01-10T13:36:39.587Z,62.93
2019-01-10T13:40:50.307Z,62.48
2019-01-10T13:44:57.366Z,62.75
2019-01-10T13:49:04.291Z,62.41
2019-01-10T13:53:13.332Z,62.66
2019-01-10T13:57:22.025Z,63.06
2019-01-10T14:01:30.125Z,63.79
2019-01-10T14:05:39.020Z,63.82
2019-01-10T14:09:46.060Z,63.80
2019-01-10T14:13:54.062Z,63.98
2019-01-10T14:18:01.672Z,64.44
2019-01-10T14:22:08.663Z,63.85
2019-01-10T14:26:15.730Z,63.94
2019-01-10T14:30:30.946Z,62.95
2019-01-10T14:34:38.039Z,63.03
2019-01-10T14:38:45.320Z,62.41
2019-01-10T14:42:57.112Z,62.63
2019-01-10T14:47:07.667Z,62.04
2019-01-10T14:51:13.124Z,61.58
2019-01-10T14:55:20.193Z,60.67
2019-01-10T14:59:27.262Z,60.80
2019-01-10T15:03:34.409Z,60.67
2019-01-10T15:07:41.416Z,61.05
2019-01-10T15:11:48.730Z,61.17
2019-01-10T15:15:58.129Z,61.02
2019-01-10T15:20:07.456Z,61.25
2019-01-10T15:24:16.629Z,61.39
2019-01-10T15:28:24.701Z,61.54
2019-01-10T15:32:31.717Z,61.58
2019-01-10T15:36:39.064Z,61.94
2019-01-10T15:40:46.384Z,62.35
2019-01-10T15:44:55.079Z,62.69
2019-01-10T15:49:07.482Z,62.77
2019-01-10T15:53:17.420Z,62.12
2019-01-10T15:57:25.322Z,62.26
2019-01-10T16:01:35.794Z,62.82
2019-01-10T16:05:45.273Z,62.77
2019-01-10T16:09:52.584Z,62.80
2019-01-10T16:13:59.936Z,62.72
2019-01-10T16:18:07.120Z,62.61
2019-01-10T16:22:14.175Z,62.43
2019-01-10T16:26:30.336Z,62.57
2019-01-10T16:30:39.500Z,62.70
2019-01-10T16:34:46.606Z,62.70
2019-01-10T16:38:53.529Z,62.65
2019-01-10T16:43:02.531Z,62.05
2019-01-10T16:47:09.833Z,62.14
2019-01-10T16:51:17.029Z,66.28
2019-01-10T16:55:24.710Z,62.35
2019-01-10T16:59:31.827Z,62.27
2019-01-10T17:03:39.319Z,64.40
2019-01-10T17:07:49.246Z,60.62
2019-01-10T17:12:00.851Z,60.35
2019-01-10T17:16:10.305Z,60.78
2019-01-10T17:20:20.606Z,60.86
2019-01-10T17:24:27.814Z,61.53
2019-01-10T17:28:38.299Z,61.27
2019-01-10T17:32:45.560Z,61.90
2019-01-10T17:36:55.991Z,62.38
2019-01-10T17:41:03.258Z,62.50
2019-01-10T17:45:13.667Z,62.74
2019-01-10T17:49:22.838Z,62.24
2019-01-10T17:53:30.084Z,62.43
2019-01-10T17:57:37.247Z,62.88
2019-01-10T18:01:47.572Z,62.91
2019-01-10T18:05:54.903Z,62.88
2019-01-10T18:10:02.363Z,63.23
2019-01-10T18:14:09.682Z,63.03
2019-01-10T18:18:17.431Z,63.27
2019-01-10T18:22:24.754Z,63.62
2019-01-10T18:26:33.964Z,63.71
2019-01-10T18:30:43.988Z,63.72
2019-01-10T18:34:51.547Z,64.20
2019-01-10T18:38:58.801Z,64.23
2019-01-10T18:43:06.137Z,64.54
2019-01-10T18:47:15.070Z,64.56
2019-01-10T18:51:22.305Z,65.31
2019-01-10T18:55:29.471Z,65.07
2019-01-10T18:59:38.161Z,65.47
2019-01-10T19:03:45.586Z,66.02
2019-01-10T19:07:52.916Z,65.96
2019-01-10T19:12:00.095Z,66.23
2019-01-10T19:16:07.381Z,66.14
2019-01-10T19:20:21.893Z,66.57
2019-01-10T19:24:36.368Z,66.13
2019-01-10T19:28:43.750Z,66.34
2019-01-10T19:32:57.312Z,66.06
2019-01-10T19:37:07.516Z,67.29
2019-01-10T19:41:17.887Z,70.24
2019-01-10T19:45:30.984Z,66.23
2019-01-10T19:49:38.116Z,65.75
2019-01-10T19:53:45.883Z,66.04
2019-01-10T19:57:54.086Z,65.27
2019-01-10T20:02:02.332Z,65.16
2019-01-10T20:06:14.628Z,65.85
2019-01-10T20:10:23.630Z,66.04
2019-01-10T20:14:42.078Z,66.45
2019-01-10T20:18:53.221Z,66.36
2019-01-10T20:23:13.925Z,66.46
2019-01-10T20:27:37.919Z,66.67
2019-01-10T20:31:51.077Z,66.91
2019-01-10T20:49:41.822Z,66.54
2019-01-10T20:54:15.986Z,66.31
2019-01-10T20:58:36.553Z,66.19
2019-01-10T21:02:49.291Z,66.13
2019-01-10T21:06:58.454Z,65.89
2019-01-10T21:11:06.411Z,65.48
2019-01-10T21:15:31.304Z,65.42
2019-01-10T21:19:38.996Z,64.72
2019-01-10T21:23:46.822Z,65.06
2019-01-10T21:28:11.999Z,65.22
2019-01-10T21:32:50.230Z,65.30
2019-01-10T21:37:02.495Z,65.65
2019-01-10T21:41:12.162Z,66.16
2019-01-10T21:45:24.677Z,65.74
2019-01-10T21:49:32.117Z,66.02
2019-01-10T21:53:40.569Z,65.93
2019-01-10T21:57:51.248Z,66.02
2019-01-10T22:02:02.568Z,67.01
2019-01-10T22:06:11.768Z,67.62
2019-01-10T22:10:24.731Z,66.20
2019-01-10T22:14:33.161Z,65.78
2019-01-10T22:18:41.833Z,65.23
2019-01-10T22:22:52.636Z,64.98
2019-01-10T22:27:00.545Z,64.99
2019-01-10T22:31:10.722Z,64.91
2019-01-10T22:35:22.535Z,65.37
2019-01-10T22:39:29.527Z,65.35
2019-01-10T22:43:41.294Z,65.45
2019-01-10T22:47:48.430Z,65.77
2019-01-10T22:51:55.529Z,65.40
2019-01-10T22:56:06.511Z,65.72
2019-01-10T23:01:02.955Z,65.37
2019-01-10T23:05:11.512Z,65.29
2019-01-10T23:09:27.086Z,65.06
2019-01-10T23:13:34.104Z,67.05
2019-01-10T23:18:04.983Z,65.98
2019-01-10T23:22:19.899Z,64.93
2019-01-10T23:26:24.833Z,64.96
2019-01-10T23:31:09.926Z,63.80
2019-01-10T23:35:25.178Z,63.52
2019-01-10T23:39:32.127Z,63.52
2019-01-10T23:43:39.964Z,63.73
2019-01-10T23:47:52.040Z,63.98
2019-01-10T23:52:00.464Z,64.14
2019-01-10T23:56:16.027Z,63.82
